Time;durP1;ratioP1;P1;durP2;ratioP2;P2;SDS_P1;SDS_P2;PMS_P1;PMS_P2;Temp;Humidity;BMP_temperature;BMP_pressure;BME280_temperature;BME280_humidity;BME280_pressure;Samples;Min_cycle;Max_cycle;Signal;HPM_P1;HPM_P2
2022/06/13 00:00:00;;;;;;;3.40;3.10;;;23.40;91.60;;;;;;6220206;28;89407;-67
2022/06/13 00:03:02;;;;;;;3.80;3.40;;;23.40;91.50;;;;;;6218873;28;90309;-66
2022/06/13 00:06:04;;;;;;;3.92;3.53;;;23.40;91.50;;;;;;6214030;28;88911;-66
2022/06/13 00:09:07;;;;;;;3.60;3.30;;;23.40;91.50;;;;;;6224467;28;87953;-66
2022/06/13 00:12:09;;;;;;;4.10;3.70;;;23.40;91.40;;;;;;6214582;28;89219;-66
2022/06/13 00:15:15;;;;;;;4.13;3.60;;;23.40;91.40;;;;;;6221265;28;89045;-67
2022/06/13 00:18:17;;;;;;;3.78;3.42;;;23.40;91.40;;;;;;6225710;28;89527;-67
2022/06/13 00:21:23;;;;;;;3.70;3.40;;;23.40;91.40;;;;;;6219688;28;89173;-67
2022/06/13 00:24:25;;;;;;;3.85;3.55;;;23.30;91.40;;;;;;6219723;28;88966;-66
2022/06/13 00:27:27;;;;;;;4.28;3.40;;;23.40;91.40;;;;;;6217973;28;88998;-66
2022/06/13 00:30:31;;;;;;;4.05;3.38;;;23.30;91.40;;;;;;6225469;28;89011;-67
2022/06/13 00:33:33;;;;;;;3.70;3.40;;;23.40;91.80;;;;;;6222834;28;90449;-66
2022/06/13 00:36:35;;;;;;;3.67;3.22;;;23.40;91.80;;;;;;6214927;28;89192;-66
2022/06/13 00:39:37;;;;;;;3.63;3.33;;;23.30;91.70;;;;;;6216417;28;89046;-66
2022/06/13 00:42:40;;;;;;;3.72;3.42;;;23.30;91.60;;;;;;6223416;27;88015;-66
2022/06/13 00:45:43;;;;;;;3.50;3.20;;;23.40;91.50;;;;;;6209097;28;89051;-66
2022/06/13 00:48:46;;;;;;;3.72;3.40;;;23.30;91.50;;;;;;6210437;28;89338;-67
2022/06/13 00:51:51;;;;;;;4.97;3.58;;;23.40;91.50;;;;;;6217812;28;89107;-66
2022/06/13 00:54:54;;;;;;;3.90;3.47;;;23.30;91.50;;;;;;6211010;28;89579;-66
2022/06/13 00:57:57;;;;;;;4.22;3.38;;;23.40;91.60;;;;;;6223302;28;89104;-66
2022/06/13 01:01:00;;;;;;;3.78;3.17;;;23.30;91.40;;;;;;6219595;28;89022;-67
2022/06/13 01:04:04;;;;;;;3.60;3.20;;;23.30;91.50;;;;;;6215543;28;90117;-66
2022/06/13 01:07:07;;;;;;;4.13;3.42;;;23.30;91.50;;;;;;6220897;28;89172;-66
2022/06/13 01:13:39;;;;;;;3.47;3.17;;;23.30;91.50;;;;;;6213394;28;88301;-67
2022/06/13 01:16:52;;;;;;;3.53;3.22;;;23.30;91.50;;;;;;6230315;28;89096;-67
2022/06/13 01:20:28;;;;;;;3.65;3.10;;;23.30;91.60;;;;;;6220605;28;89184;-67
2022/06/13 01:24:06;;;;;;;3.60;3.30;;;23.30;91.60;;;;;;6207847;28;89168;-66
2022/06/13 01:27:29;;;;;;;4.18;3.50;;;23.30;91.60;;;;;;6208920;28;88301;-66
2022/06/13 01:31:04;;;;;;;3.75;3.40;;;23.30;92.20;;;;;;6215173;28;89530;-66
2022/06/13 01:34:15;;;;;;;3.47;3.15;;;23.30;91.80;;;;;;6215028;28;89050;-66
2022/06/13 01:37:33;;;;;;;4.05;3.50;;;23.30;91.70;;;;;;6217704;28;90040;-66
2022/06/13 01:40:53;;;;;;;3.70;3.40;;;23.30;91.60;;;;;;6212196;28;89066;-67
2022/06/13 01:44:02;;;;;;;3.30;3.00;;;23.30;91.60;;;;;;6214615;28;91001;-67
2022/06/13 01:47:10;;;;;;;3.97;3.38;;;23.30;91.60;;;;;;6205358;28;89165;-66
2022/06/13 01:50:22;;;;;;;3.47;3.10;;;23.30;91.60;;;;;;6229949;28;89024;-67
2022/06/13 01:53:33;;;;;;;3.28;3.00;;;23.30;91.60;;;;;;6238922;28;89046;-67
2022/06/13 01:56:38;;;;;;;3.55;3.22;;;23.30;91.60;;;;;;6224360;28;89570;-66
2022/06/13 01:59:47;;;;;;;3.92;3.30;;;23.30;91.60;;;;;;6219628;28;88416;-67
2022/06/13 02:02:54;;;;;;;3.70;3.38;;;23.30;91.60;;;;;;6223037;28;89200;-66
2022/06/13 02:06:01;;;;;;;3.42;3.00;;;23.20;91.60;;;;;;6217609;28;89119;-67
2022/06/13 02:09:06;;;;;;;5.07;3.28;;;23.20;91.60;;;;;;6219876;28;89889;-67
2022/06/13 02:12:09;;;;;;;3.60;3.30;;;23.20;91.70;;;;;;6232030;28;87892;-66
2022/06/13 02:15:16;;;;;;;3.53;3.22;;;23.20;91.70;;;;;;6227058;28;89093;-66
2022/06/13 02:18:25;;;;;;;4.30;3.53;;;23.20;91.70;;;;;;6230777;28;89095;-67
2022/06/13 02:21:33;;;;;;;3.90;3.47;;;23.20;91.80;;;;;;6213329;28;89478;-67
2022/06/13 02:24:38;;;;;;;3.83;3.42;;;23.20;91.80;;;;;;6210871;28;89124;-66
2022/06/13 02:27:44;;;;;;;5.35;3.70;;;23.20;91.80;;;;;;6214601;28;89047;-67
2022/06/13 02:30:49;;;;;;;4.10;3.70;;;23.20;91.80;;;;;;6233634;28;88333;-67
2022/06/13 02:33:59;;;;;;;4.20;3.80;;;23.20;91.80;;;;;;6220667;28;88018;-67
2022/06/13 02:37:09;;;;;;;4.22;3.45;;;23.20;91.90;;;;;;6224849;28;89080;-66
2022/06/13 02:40:16;;;;;;;3.67;3.38;;;23.20;91.90;;;;;;6214135;28;90339;-67
2022/06/13 02:43:22;;;;;;;4.28;3.85;;;23.20;91.70;;;;;;6232081;28;88982;-67
2022/06/13 02:46:30;;;;;;;4.47;4.07;;;23.20;91.50;;;;;;6223114;28;89081;-67
2022/06/13 02:49:40;;;;;;;4.75;3.88;;;23.20;91.30;;;;;;6229639;28;89016;-66
2022/06/13 02:52:46;;;;;;;4.30;3.80;;;23.20;91.30;;;;;;6219816;28;88983;-66
2022/06/13 02:56:00;;;;;;;3.88;3.58;;;23.10;91.20;;;;;;6231452;28;90346;-66
2022/06/13 02:59:25;;;;;;;4.15;3.80;;;23.10;91.10;;;;;;6228751;28;89038;-66
2022/06/13 03:02:33;;;;;;;4.28;3.30;;;23.20;91.30;;;;;;6230804;28;88342;-66
2022/06/13 03:05:46;;;;;;;3.70;3.40;;;23.10;91.40;;;;;;6210793;28;89065;-66
2022/06/13 03:09:00;;;;;;;3.90;3.55;;;23.10;91.60;;;;;;6230006;28;89072;-67
2022/06/13 03:12:06;;;;;;;3.80;3.40;;;23.10;91.70;;;;;;6215798;28;90033;-67
2022/06/13 03:15:15;;;;;;;4.32;3.80;;;23.10;91.70;;;;;;6228130;28;89021;-66
2022/06/13 03:18:24;;;;;;;4.80;3.97;;;23.10;91.90;;;;;;6230893;28;88877;-67
2022/06/13 03:21:34;;;;;;;3.85;3.55;;;23.10;92.00;;;;;;6213046;28;89030;-67
2022/06/13 03:24:46;;;;;;;4.15;3.72;;;23.10;92.30;;;;;;6227527;28;89101;-66
2022/06/13 03:27:54;;;;;;;3.83;3.53;;;23.10;92.50;;;;;;6223161;28;89218;-66
2022/06/13 03:31:00;;;;;;;3.63;3.33;;;23.10;92.70;;;;;;6226284;28;89310;-66
2022/06/13 03:34:08;;;;;;;3.63;3.33;;;23.10;93.00;;;;;;6226895;28;88673;-66
2022/06/13 03:37:15;;;;;;;3.85;3.55;;;23.10;93.20;;;;;;6208328;28;89490;-66
2022/06/13 03:40:21;;;;;;;3.92;3.63;;;23.10;93.50;;;;;;6207265;28;89126;-66
2022/06/13 03:43:27;;;;;;;4.70;3.80;;;23.10;93.80;;;;;;6219414;28;90008;-66
2022/06/13 03:46:35;;;;;;;4.95;3.80;;;23.10;94.10;;;;;;6219887;28;88294;-66
2022/06/13 03:49:39;;;;;;;3.83;3.47;;;23.10;94.20;;;;;;6219511;28;89101;-66
2022/06/13 03:52:48;;;;;;;4.00;3.70;;;23.10;94.30;;;;;;6238978;28;90275;-66
2022/06/13 03:55:54;;;;;;;4.18;3.63;;;23.10;94.60;;;;;;6218145;28;89064;-66
2022/06/13 03:59:03;;;;;;;3.50;3.20;;;23.10;94.60;;;;;;6219505;28;89629;-67
2022/06/13 04:02:10;;;;;;;4.15;3.50;;;23.10;94.90;;;;;;6218900;28;88282;-66
2022/06/13 04:05:24;;;;;;;4.60;3.50;;;23.10;95.20;;;;;;6229540;28;88328;-67
2022/06/13 04:08:31;;;;;;;4.53;3.80;;;23.10;95.30;;;;;;6230016;27;89480;-67
2022/06/13 04:11:51;;;;;;;3.88;3.58;;;23.10;95.50;;;;;;6208666;27;89406;-67
2022/06/13 04:15:12;;;;;;;4.05;3.30;;;23.10;95.70;;;;;;6208667;28;90098;-67
2022/06/13 04:18:21;;;;;;;3.97;3.45;;;23.10;95.70;;;;;;6223416;28;89116;-67
2022/06/13 04:21:32;;;;;;;3.85;3.55;;;23.10;95.80;;;;;;6212856;28;89387;-67
2022/06/13 04:24:48;;;;;;;4.07;3.72;;;23.10;95.90;;;;;;6220894;28;89250;-66
2022/06/13 04:27:56;;;;;;;3.80;3.45;;;23.10;95.90;;;;;;6217760;28;87872;-66
2022/06/13 04:31:00;;;;;;;3.75;3.42;;;23.00;95.90;;;;;;6210261;28;89081;-66
2022/06/13 04:34:08;;;;;;;3.53;3.28;;;23.00;96.00;;;;;;6208113;28;87930;-67
2022/06/13 04:37:10;;;;;;;4.43;3.40;;;23.10;96.10;;;;;;6230705;28;88335;-67
2022/06/13 04:40:18;;;;;;;3.92;3.63;;;23.00;96.10;;;;;;6227556;28;89069;-67
2022/06/13 04:43:23;;;;;;;3.70;3.30;;;23.00;96.20;;;;;;6215908;28;89362;-67
2022/06/13 04:46:28;;;;;;;3.80;3.40;;;23.00;96.40;;;;;;6210993;28;90286;-66
2022/06/13 04:49:34;;;;;;;3.88;3.50;;;23.00;96.60;;;;;;6220176;27;89067;-66
2022/06/13 04:52:38;;;;;;;3.72;3.42;;;23.10;97.00;;;;;;6207064;28;89161;-66
2022/06/13 04:55:44;;;;;;;3.72;3.40;;;23.00;97.30;;;;;;6216952;28;89087;-67
2022/06/13 04:58:46;;;;;;;3.60;3.25;;;23.10;97.50;;;;;;6216114;28;89144;-66
2022/06/13 05:01:50;;;;;;;3.60;3.30;;;23.10;97.80;;;;;;6229926;28;89178;-67
2022/06/13 05:04:52;;;;;;;3.60;3.30;;;23.10;98.00;;;;;;6216643;28;87971;-67
2022/06/13 05:07:54;;;;;;;3.63;3.33;;;23.10;98.10;;;;;;6225387;28;88344;-66
2022/06/13 05:11:06;;;;;;;3.60;3.30;;;23.10;98.20;;;;;;6219277;28;89020;-66
2022/06/13 05:14:11;;;;;;;4.72;3.50;;;23.00;98.30;;;;;;6219990;28;89107;-66
2022/06/13 05:17:39;;;;;;;4.07;3.42;;;23.00;98.40;;;;;;6216290;28;90362;-66
2022/06/13 05:20:51;;;;;;;3.97;3.58;;;23.10;98.50;;;;;;6218393;28;88998;-67
2022/06/13 05:24:13;;;;;;;3.85;3.17;;;23.00;98.60;;;;;;6220269;28;89190;-66
2022/06/13 05:27:17;;;;;;;3.38;3.03;;;23.00;98.40;;;;;;6222365;28;89129;-66
2022/06/13 05:30:19;;;;;;;3.58;3.25;;;23.00;98.30;;;;;;6210605;28;89136;-67
2022/06/13 05:33:25;;;;;;;3.50;3.20;;;23.00;98.50;;;;;;6233118;28;89169;-67
2022/06/13 05:36:28;;;;;;;3.28;2.97;;;23.00;98.60;;;;;;6223292;28;89005;-66
2022/06/13 05:39:31;;;;;;;3.20;2.90;;;23.00;98.50;;;;;;6229537;28;88653;-67
2022/06/13 05:42:34;;;;;;;3.13;2.90;;;23.00;98.70;;;;;;6233360;28;89354;-67
2022/06/13 05:45:38;;;;;;;3.30;3.00;;;23.00;98.80;;;;;;6216989;28;89066;-67
2022/06/13 05:48:40;;;;;;;4.03;3.40;;;23.00;99.00;;;;;;6224576;28;90098;-66
2022/06/13 05:51:42;;;;;;;3.28;2.97;;;23.00;99.00;;;;;;6233799;28;89103;-66
2022/06/13 05:54:44;;;;;;;3.47;3.17;;;23.00;99.00;;;;;;6229201;28;89019;-67
2022/06/13 05:57:48;;;;;;;3.65;3.28;;;23.00;99.00;;;;;;6222340;28;89353;-66
2022/06/13 06:00:54;;;;;;;3.05;2.85;;;23.00;99.00;;;;;;6209650;28;89079;-66
2022/06/13 06:03:56;;;;;;;4.13;3.15;;;23.00;99.10;;;;;;6228772;28;87782;-66
2022/06/13 06:06:58;;;;;;;3.75;3.00;;;23.00;99.20;;;;;;6224128;28;89261;-67
2022/06/13 06:10:01;;;;;;;2.83;2.63;;;23.00;99.40;;;;;;6210179;28;87184;-66
2022/06/13 06:13:05;;;;;;;3.40;3.03;;;23.00;99.30;;;;;;6225921;28;89224;-67
2022/06/13 06:16:07;;;;;;;4.10;3.10;;;23.00;99.50;;;;;;6221304;28;89137;-66
2022/06/13 06:19:09;;;;;;;3.58;3.28;;;23.00;99.70;;;;;;6226485;28;90085;-67
2022/06/13 06:22:12;;;;;;;3.30;3.00;;;23.00;99.80;;;;;;6222610;28;89077;-66
2022/06/13 06:25:14;;;;;;;3.85;3.50;;;23.00;99.90;;;;;;6223663;28;89057;-66
2022/06/13 06:28:25;;;;;;;3.40;3.10;;;23.00;99.90;;;;;;6217519;28;89085;-67
2022/06/13 06:31:27;;;;;;;3.78;2.83;;;23.00;99.90;;;;;;6216210;28;89265;-66
2022/06/13 06:34:29;;;;;;;3.63;3.33;;;23.00;99.90;;;;;;6210050;28;89145;-66
2022/06/13 06:37:31;;;;;;;3.70;3.40;;;23.00;99.90;;;;;;6224943;28;87746;-66
2022/06/13 06:40:34;;;;;;;3.47;3.17;;;23.00;99.90;;;;;;6226581;28;88449;-66
2022/06/13 06:43:37;;;;;;;3.65;3.30;;;23.00;99.90;;;;;;6220682;28;88864;-65
2022/06/13 06:46:39;;;;;;;3.63;3.22;;;23.00;99.90;;;;;;6221566;28;89086;-65
2022/06/13 06:49:41;;;;;;;4.00;3.60;;;23.00;99.90;;;;;;6212926;28;89959;-66
2022/06/13 06:52:44;;;;;;;3.65;3.35;;;23.00;99.90;;;;;;6223921;28;89088;-66
2022/06/13 07:02:30;;;;;;;3.33;3.03;;;23.00;99.90;;;;;;6223479;28;87427;-67
2022/06/13 07:05:32;;;;;;;3.97;3.30;;;23.00;99.90;;;;;;6222484;28;89177;-67
2022/06/13 07:08:34;;;;;;;3.40;3.10;;;23.00;99.90;;;;;;6221263;28;89043;-66
2022/06/13 07:11:55;;;;;;;4.38;3.22;;;23.00;99.90;;;;;;6225571;28;88899;-65
2022/06/13 07:14:58;;;;;;;3.67;3.20;;;23.00;99.90;;;;;;6222121;28;89078;-66
2022/06/13 07:18:00;;;;;;;4.05;3.50;;;23.10;99.90;;;;;;6225500;28;89162;-66
2022/06/13 07:21:02;;;;;;;3.50;3.20;;;23.10;99.90;;;;;;6223641;28;90697;-67
2022/06/13 07:24:05;;;;;;;3.50;3.20;;;23.10;99.90;;;;;;6226297;28;89701;-66
2022/06/13 07:27:07;;;;;;;3.47;3.17;;;23.10;99.90;;;;;;6223127;28;87943;-66
2022/06/13 07:30:12;;;;;;;3.28;2.97;;;23.10;99.90;;;;;;6226134;28;88962;-66
2022/06/13 07:33:14;;;;;;;4.25;3.10;;;23.10;99.90;;;;;;6216293;28;89172;-66
2022/06/13 07:36:17;;;;;;;3.42;3.13;;;23.10;99.90;;;;;;6226065;28;88333;-66
2022/06/13 07:39:20;;;;;;;3.40;3.10;;;23.00;99.90;;;;;;6222784;28;89072;-66
2022/06/13 07:42:22;;;;;;;3.65;3.10;;;23.10;99.90;;;;;;6216244;28;88534;-66
2022/06/13 07:45:28;;;;;;;3.67;3.17;;;23.10;99.90;;;;;;6217922;28;89175;-66
2022/06/13 07:48:31;;;;;;;4.47;3.22;;;23.10;99.90;;;;;;6214304;28;87019;-66
2022/06/13 07:51:33;;;;;;;3.33;3.03;;;23.10;99.90;;;;;;6219608;28;90181;-66
2022/06/13 07:54:35;;;;;;;3.63;3.30;;;23.10;99.90;;;;;;6222245;28;89292;-67
2022/06/13 07:57:38;;;;;;;3.83;3.40;;;23.10;99.90;;;;;;6222682;28;89098;-67
2022/06/13 08:00:41;;;;;;;3.33;3.03;;;23.10;99.90;;;;;;6217091;28;88011;-67
2022/06/13 08:03:44;;;;;;;3.40;3.10;;;23.10;99.90;;;;;;6222358;28;89142;-66
2022/06/13 08:06:46;;;;;;;3.90;3.50;;;23.10;99.90;;;;;;6220028;28;91538;-67
2022/06/13 08:09:49;;;;;;;3.03;2.80;;;23.10;99.90;;;;;;6220711;28;88272;-66
2022/06/13 08:12:51;;;;;;;3.28;3.03;;;23.10;99.90;;;;;;6216681;28;88681;-66
2022/06/13 08:15:55;;;;;;;3.00;2.70;;;23.10;99.90;;;;;;6212236;28;90378;-66
2022/06/13 08:18:57;;;;;;;3.50;3.20;;;23.10;99.90;;;;;;6215044;28;89052;-67
2022/06/13 08:21:59;;;;;;;3.28;2.97;;;23.10;99.90;;;;;;6217093;28;90333;-66
2022/06/13 08:25:01;;;;;;;3.10;2.80;;;23.10;99.90;;;;;;6222204;28;89432;-66
2022/06/13 08:28:03;;;;;;;2.80;2.60;;;23.10;99.90;;;;;;6221906;28;89059;-67
2022/06/13 08:31:09;;;;;;;4.45;3.58;;;23.10;99.90;;;;;;6214724;28;89385;-66
2022/06/13 08:34:11;;;;;;;3.47;3.00;;;23.10;99.90;;;;;;6221916;28;89138;-66
2022/06/13 08:37:13;;;;;;;3.58;2.80;;;23.10;99.90;;;;;;6225415;28;89164;-66
2022/06/13 08:40:15;;;;;;;3.45;2.85;;;23.10;99.90;;;;;;6223016;28;89365;-66
2022/06/13 08:43:39;;;;;;;4.05;3.42;;;23.10;99.90;;;;;;6227623;28;88327;-65
2022/06/13 08:46:54;;;;;;;3.08;2.60;;;23.10;99.90;;;;;;6219651;28;89146;-66
2022/06/13 08:50:05;;;;;;;3.00;2.70;;;23.10;99.90;;;;;;6227024;28;89105;-65
2022/06/13 08:53:13;;;;;;;3.30;3.00;;;23.10;99.90;;;;;;6211462;28;90096;-66
2022/06/13 08:56:18;;;;;;;3.00;2.80;;;23.10;99.90;;;;;;6229125;28;89223;-66
2022/06/13 08:59:25;;;;;;;3.13;2.80;;;23.10;99.90;;;;;;6230649;28;89029;-66
2022/06/13 09:02:35;;;;;;;2.90;2.70;;;23.10;99.90;;;;;;6207739;28;89422;-66
2022/06/13 09:05:58;;;;;;;3.13;2.83;;;23.10;99.90;;;;;;6206326;28;89098;-65
2022/06/13 09:09:08;;;;;;;2.90;2.70;;;23.10;99.90;;;;;;6216773;28;89374;-66
2022/06/13 09:12:16;;;;;;;2.60;2.40;;;23.10;99.90;;;;;;6203574;28;88965;-66
2022/06/13 09:15:20;;;;;;;2.78;2.58;;;23.10;99.90;;;;;;6211070;28;88302;-65
2022/06/13 09:18:29;;;;;;;2.80;2.60;;;23.10;99.90;;;;;;6224201;28;88906;-66
2022/06/13 09:21:35;;;;;;;3.05;2.40;;;23.10;99.90;;;;;;6216755;28;87976;-66
2022/06/13 09:24:45;;;;;;;2.75;2.50;;;23.10;99.90;;;;;;6209312;28;89954;-65
2022/06/13 09:27:55;;;;;;;2.67;2.47;;;23.10;99.90;;;;;;6218711;28;89459;-65
2022/06/13 09:31:04;;;;;;;2.88;2.67;;;23.10;99.90;;;;;;6218514;28;87869;-66
2022/06/13 09:34:12;;;;;;;2.70;2.50;;;23.10;99.90;;;;;;6220491;28;90240;-65
2022/06/13 09:37:19;;;;;;;2.55;2.30;;;23.10;99.90;;;;;;6213900;28;89340;-66
2022/06/13 09:40:32;;;;;;;3.05;2.60;;;23.10;99.90;;;;;;6223900;28;89030;-66
2022/06/13 09:43:51;;;;;;;2.70;2.50;;;23.10;99.90;;;;;;6216938;28;89054;-65
2022/06/13 09:47:00;;;;;;;2.53;2.33;;;23.10;99.90;;;;;;6219300;28;88471;-65
2022/06/13 09:50:12;;;;;;;2.50;2.25;;;23.10;99.90;;;;;;6205804;28;89188;-66
2022/06/13 09:53:21;;;;;;;2.58;2.38;;;23.10;99.90;;;;;;6208761;28;89594;-65
2022/06/13 09:56:31;;;;;;;2.80;2.22;;;23.10;99.90;;;;;;6223782;28;90021;-65
2022/06/13 09:59:51;;;;;;;2.90;2.60;;;23.10;99.90;;;;;;6208417;28;88982;-65
2022/06/13 10:03:03;;;;;;;3.05;2.40;;;23.10;99.90;;;;;;6217981;28;89152;-66
2022/06/13 10:06:13;;;;;;;2.50;2.30;;;23.10;99.90;;;;;;6205339;28;89092;-65
2022/06/13 10:09:29;;;;;;;2.60;2.40;;;23.10;99.90;;;;;;6219280;28;87988;-66
2022/06/13 10:12:39;;;;;;;3.13;2.40;;;23.10;99.90;;;;;;6213740;28;89114;-66
2022/06/13 10:15:54;;;;;;;2.42;2.22;;;23.10;99.90;;;;;;6226456;28;88170;-65
2022/06/13 10:19:07;;;;;;;2.30;2.10;;;23.10;99.90;;;;;;6208402;28;88397;-67
2022/06/13 10:22:15;;;;;;;2.30;2.10;;;23.10;99.90;;;;;;6218440;28;89191;-66
2022/06/13 10:25:30;;;;;;;2.40;2.20;;;23.10;99.90;;;;;;6224082;28;89393;-66
2022/06/13 10:29:00;;;;;;;3.60;2.45;;;23.10;99.90;;;;;;6210250;28;90168;-66
2022/06/13 10:32:13;;;;;;;2.50;2.13;;;23.10;99.90;;;;;;6213524;28;87988;-67
2022/06/13 10:35:28;;;;;;;2.28;2.08;;;23.10;99.90;;;;;;6219884;28;89112;-66
2022/06/13 10:38:43;;;;;;;2.70;2.20;;;23.20;99.90;;;;;;6211479;28;89098;-66
2022/06/13 10:41:48;;;;;;;2.75;2.38;;;23.20;99.90;;;;;;6210524;28;89171;-66
2022/06/13 10:44:50;;;;;;;2.33;2.08;;;23.10;99.90;;;;;;6222601;28;89200;-66
2022/06/13 10:47:58;;;;;;;2.50;2.30;;;23.10;99.90;;;;;;6224848;28;89232;-66
2022/06/13 10:51:03;;;;;;;2.28;1.90;;;23.20;99.90;;;;;;6228978;28;88287;-66
2022/06/13 10:54:10;;;;;;;2.25;2.05;;;23.20;99.90;;;;;;6223346;28;88320;-66
2022/06/13 10:57:16;;;;;;;2.10;2.00;;;23.20;99.90;;;;;;6217295;28;89051;-66
2022/06/13 11:00:21;;;;;;;2.30;2.10;;;23.20;99.90;;;;;;6227904;28;90513;-66
2022/06/13 11:03:23;;;;;;;2.33;2.13;;;23.20;99.90;;;;;;6221655;28;89054;-66
2022/06/13 11:06:34;;;;;;;2.40;2.20;;;23.20;99.90;;;;;;6226676;28;89113;-66
2022/06/13 11:09:40;;;;;;;2.30;2.10;;;23.20;99.90;;;;;;6224478;28;89054;-66
2022/06/13 11:12:42;;;;;;;2.65;2.20;;;23.10;99.90;;;;;;6222551;28;87847;-66
2022/06/13 11:22:41;;;;;;;2.67;2.38;;;23.20;99.90;;;;;;6224783;28;86830;-66
2022/06/13 11:25:46;;;;;;;2.47;1.85;;;23.20;99.90;;;;;;6218342;28;89398;-67
2022/06/13 11:28:48;;;;;;;2.28;2.08;;;23.20;99.90;;;;;;6214302;28;89350;-66
2022/06/13 11:31:51;;;;;;;2.25;2.05;;;23.20;99.90;;;;;;6209292;28;90157;-67
2022/06/13 11:34:53;;;;;;;4.18;2.10;;;23.20;99.90;;;;;;6211146;28;88277;-66
2022/06/13 11:37:55;;;;;;;2.55;2.10;;;23.20;99.90;;;;;;6207277;28;89202;-66
2022/06/13 11:41:18;;;;;;;2.10;2.00;;;23.20;99.90;;;;;;6218326;28;89095;-66
2022/06/13 11:44:22;;;;;;;2.40;1.88;;;23.20;99.90;;;;;;6219415;28;89102;-66
2022/06/13 11:47:25;;;;;;;2.25;2.03;;;23.20;99.90;;;;;;6222020;28;88108;-66
2022/06/13 11:50:33;;;;;;;1.98;1.85;;;23.20;99.90;;;;;;6223664;28;89072;-66
2022/06/13 11:53:41;;;;;;;2.00;1.88;;;23.20;99.90;;;;;;6221359;28;89431;-66
2022/06/13 11:56:44;;;;;;;2.35;2.08;;;23.30;99.90;;;;;;6218938;28;88997;-66
2022/06/13 11:59:51;;;;;;;2.03;1.83;;;23.20;99.90;;;;;;6219600;28;89068;-66
2022/06/13 12:02:58;;;;;;;1.73;1.63;;;23.20;99.90;;;;;;6224557;28;90017;-66
2022/06/13 12:06:08;;;;;;;2.00;1.80;;;23.20;99.90;;;;;;6224425;28;89235;-66
2022/06/13 12:09:18;;;;;;;1.90;1.70;;;23.20;99.90;;;;;;6221011;28;89137;-66
2022/06/13 12:12:22;;;;;;;1.95;1.80;;;23.20;99.90;;;;;;6206850;28;89171;-66
2022/06/13 12:15:34;;;;;;;2.17;1.95;;;23.20;99.90;;;;;;6214135;28;89052;-66
2022/06/13 12:18:42;;;;;;;2.67;2.17;;;23.20;99.90;;;;;;6210416;28;89053;-66
2022/06/13 12:21:49;;;;;;;2.30;2.08;;;23.20;99.90;;;;;;6219280;28;88247;-66
2022/06/13 12:25:02;;;;;;;2.60;2.10;;;23.20;99.90;;;;;;6228151;28;88245;-66
2022/06/13 12:28:11;;;;;;;2.45;2.13;;;23.20;99.90;;;;;;6213426;28;89106;-66
2022/06/13 12:31:17;;;;;;;2.17;1.98;;;23.20;99.90;;;;;;6210840;28;88879;-66
2022/06/13 12:34:26;;;;;;;2.38;2.17;;;23.30;99.90;;;;;;6229122;28;90021;-66
2022/06/13 12:37:39;;;;;;;2.90;2.22;;;23.30;99.90;;;;;;6213350;28;89339;-66
2022/06/13 12:40:52;;;;;;;2.30;2.10;;;23.30;99.90;;;;;;6215239;28;89153;-67
2022/06/13 12:44:15;;;;;;;2.60;2.40;;;23.30;99.90;;;;;;6215212;28;90925;-66
2022/06/13 12:47:35;;;;;;;2.50;2.30;;;23.20;99.90;;;;;;6204565;28;87982;-65
2022/06/13 12:50:59;;;;;;;3.05;2.75;;;23.30;99.90;;;;;;6216867;28;89044;-66
2022/06/13 12:54:34;;;;;;;3.58;2.47;;;23.30;99.90;;;;;;6214007;28;89096;-66
2022/06/13 12:57:54;;;;;;;3.00;2.70;;;23.30;99.90;;;;;;6211945;28;88330;-66
2022/06/13 13:01:03;;;;;;;3.38;3.08;;;23.30;99.90;;;;;;6221676;28;89460;-66
2022/06/13 13:04:40;;;;;;;3.35;2.80;;;23.20;99.90;;;;;;6214550;28;89351;-66
2022/06/13 13:07:52;;;;;;;4.78;2.90;;;23.20;99.90;;;;;;6206980;28;90075;-66
2022/06/13 13:11:15;;;;;;;3.75;3.08;;;23.30;99.90;;;;;;6221828;28;88610;-66
2022/06/13 13:14:25;;;;;;;3.28;2.97;;;23.30;98.60;;;;;;6227004;28;89154;-66
2022/06/13 13:17:36;;;;;;;3.15;2.85;;;23.20;98.30;;;;;;6221616;28;89178;-66
2022/06/13 13:20:45;;;;;;;3.78;3.17;;;23.30;98.40;;;;;;6222222;28;89045;-66
2022/06/13 13:24:03;;;;;;;3.35;2.88;;;23.30;98.60;;;;;;6223692;28;88883;-66
2022/06/13 13:27:07;;;;;;;3.38;3.08;;;23.30;98.60;;;;;;6226512;28;89420;-66
2022/06/13 13:30:17;;;;;;;3.45;3.15;;;23.20;98.70;;;;;;6212220;28;88712;-66
2022/06/13 13:33:58;;;;;;;3.30;3.00;;;23.30;98.70;;;;;;6216202;28;88966;-66
2022/06/13 13:37:16;;;;;;;3.28;2.97;;;23.20;98.70;;;;;;6198065;28;89068;-66
2022/06/13 13:40:23;;;;;;;3.80;3.40;;;23.30;98.60;;;;;;6217516;28;89918;-66
2022/06/13 13:43:33;;;;;;;3.72;3.20;;;23.30;98.60;;;;;;6228620;28;89059;-66
2022/06/13 13:46:41;;;;;;;3.78;3.42;;;23.30;98.60;;;;;;6213871;28;89120;-66
2022/06/13 13:49:47;;;;;;;3.72;3.38;;;23.30;98.50;;;;;;6225824;28;89009;-66
2022/06/13 13:52:54;;;;;;;3.95;3.60;;;23.20;98.40;;;;;;6221173;28;89071;-66
2022/06/13 13:56:02;;;;;;;4.30;3.78;;;23.20;98.40;;;;;;6225306;28;89114;-66
2022/06/13 13:59:05;;;;;;;4.03;3.63;;;23.30;98.30;;;;;;6221694;28;89269;-67
2022/06/13 14:02:16;;;;;;;4.18;3.60;;;23.30;98.20;;;;;;6219538;28;88404;-66
2022/06/13 14:05:36;;;;;;;4.10;3.70;;;23.30;98.10;;;;;;6217772;28;89636;-66
2022/06/13 14:08:43;;;;;;;3.90;3.60;;;23.30;98.00;;;;;;6229285;28;89609;-66
2022/06/13 14:12:08;;;;;;;4.18;3.78;;;23.30;97.90;;;;;;6211040;28;90079;-66
2022/06/13 14:15:18;;;;;;;4.97;3.70;;;23.30;97.70;;;;;;6230744;28;89018;-67
2022/06/13 14:18:25;;;;;;;3.97;3.67;;;23.30;97.60;;;;;;6229507;28;88953;-66
2022/06/13 14:21:56;;;;;;;4.13;3.65;;;23.30;97.50;;;;;;6214398;28;89022;-66
2022/06/13 14:25:08;;;;;;;3.83;3.50;;;23.20;97.40;;;;;;6230085;28;89417;-66
2022/06/13 14:28:13;;;;;;;3.97;3.58;;;23.30;97.30;;;;;;6219699;28;88964;-65
2022/06/13 14:31:15;;;;;;;3.75;3.45;;;23.30;97.40;;;;;;6210501;28;89085;-65
2022/06/13 14:38:37;;;;;;;4.45;3.55;;;23.30;97.60;;;;;;6213320;28;87361;-65
2022/06/13 14:41:43;;;;;;;3.45;3.15;;;23.20;97.60;;;;;;6222146;28;89192;-66
2022/06/13 14:44:58;;;;;;;4.03;3.58;;;23.30;97.60;;;;;;6214727;28;89400;-66
2022/06/13 14:48:15;;;;;;;3.78;3.47;;;23.30;97.60;;;;;;6225184;28;89087;-66
2022/06/13 14:51:25;;;;;;;4.10;3.70;;;23.20;97.60;;;;;;6217919;28;89184;-66
2022/06/13 14:54:49;;;;;;;3.80;3.50;;;23.30;97.60;;;;;;6227490;28;89101;-65
2022/06/13 14:57:54;;;;;;;3.72;3.40;;;23.30;97.60;;;;;;6216427;28;89020;-65
2022/06/13 15:01:18;;;;;;;4.03;3.55;;;23.30;97.50;;;;;;6227248;28;89434;-65
2022/06/13 15:04:27;;;;;;;3.60;3.30;;;23.30;97.50;;;;;;6229440;28;89065;-65
2022/06/13 15:07:44;;;;;;;3.75;3.42;;;23.30;97.90;;;;;;6224418;28;88605;-65
2022/06/13 15:10:49;;;;;;;3.83;3.40;;;23.30;97.50;;;;;;6221237;28;89072;-66
2022/06/13 15:13:52;;;;;;;4.05;3.65;;;23.30;97.50;;;;;;6226714;28;89270;-65
2022/06/13 15:16:55;;;;;;;3.90;3.50;;;23.30;97.40;;;;;;6228972;28;90046;-65
2022/06/13 15:20:00;;;;;;;3.92;3.53;;;23.30;97.40;;;;;;6225637;28;87923;-66
2022/06/13 15:23:05;;;;;;;4.53;3.80;;;23.30;97.40;;;;;;6215688;28;89280;-65
2022/06/13 15:26:19;;;;;;;4.03;3.63;;;23.30;97.40;;;;;;6223430;28;87991;-65
2022/06/13 15:29:25;;;;;;;4.07;3.67;;;23.30;97.30;;;;;;6214318;28;89360;-65
2022/06/13 15:32:32;;;;;;;3.85;3.42;;;23.30;97.30;;;;;;6229545;28;90117;-66
2022/06/13 15:35:52;;;;;;;3.83;3.53;;;23.30;97.20;;;;;;6228996;28;89169;-65
2022/06/13 15:38:54;;;;;;;3.65;3.35;;;23.30;97.20;;;;;;6230143;28;88652;-66
2022/06/13 15:42:00;;;;;;;3.50;3.20;;;23.30;97.10;;;;;;6215344;28;89048;-66
2022/06/13 15:45:11;;;;;;;3.30;2.95;;;23.30;97.00;;;;;;6213781;28;88986;-65
2022/06/13 15:48:17;;;;;;;3.60;3.30;;;23.30;97.00;;;;;;6230703;28;88811;-65
2022/06/13 15:51:22;;;;;;;3.42;3.13;;;23.30;96.90;;;;;;6214206;28;88320;-65
2022/06/13 15:54:24;;;;;;;3.45;2.92;;;23.30;96.80;;;;;;6217224;28;89500;-65
2022/06/13 15:57:28;;;;;;;2.95;2.75;;;23.30;96.80;;;;;;6211159;28;89116;-65
2022/06/13 16:00:34;;;;;;;3.25;2.90;;;23.30;96.80;;;;;;6207990;28;89239;-65
2022/06/13 16:03:39;;;;;;;3.38;3.03;;;23.30;96.80;;;;;;6206746;28;89701;-64
2022/06/13 16:06:45;;;;;;;3.20;2.90;;;23.30;96.70;;;;;;6220386;28;88156;-66
2022/06/13 16:09:47;;;;;;;3.28;2.92;;;23.30;96.60;;;;;;6227761;28;87470;-66
2022/06/13 16:12:52;;;;;;;4.50;2.88;;;23.30;96.60;;;;;;6228085;28;89043;-66
2022/06/13 16:15:58;;;;;;;3.55;2.70;;;23.30;96.60;;;;;;6216225;28;89077;-65
2022/06/13 16:19:01;;;;;;;2.60;2.40;;;23.30;96.40;;;;;;6216892;28;89908;-67
2022/06/13 16:22:07;;;;;;;2.70;2.50;;;23.30;96.10;;;;;;6222361;28;89201;-67
2022/06/13 16:25:10;;;;;;;2.90;2.60;;;23.30;95.90;;;;;;6211768;28;89173;-67
2022/06/13 16:28:16;;;;;;;3.10;2.80;;;23.30;95.90;;;;;;6220440;28;87995;-66
2022/06/13 16:31:20;;;;;;;3.10;2.70;;;23.30;95.80;;;;;;6224234;28;89354;-67
2022/06/13 16:34:24;;;;;;;11.75;3.08;;;23.30;95.80;;;;;;6227013;28;89434;-66
2022/06/13 16:37:47;;;;;;;17.15;3.13;;;23.30;96.30;;;;;;6210758;28;89135;-67